createdAt,value
2019-05-12T00:02:05.105Z,1.00
2019-05-12T00:04:32.015Z,1.10
2019-05-12T00:06:58.921Z,0.93
2019-05-12T00:09:28.202Z,1.00
2019-05-12T00:11:54.344Z,1.00
2019-05-12T00:14:21.989Z,1.10
2019-05-12T00:16:50.146Z,1.17
2019-05-12T00:19:18.127Z,1.10
2019-05-12T00:21:48.146Z,1.07
2019-05-12T00:24:13.409Z,1.30
2019-05-12T00:26:40.918Z,1.00
2019-05-12T00:29:08.869Z,0.80
2019-05-12T00:31:38.291Z,1.00
2019-05-12T00:34:04.176Z,1.10
2019-05-12T00:36:31.349Z,1.00
2019-05-12T00:38:58.349Z,1.00
2019-05-12T00:41:25.081Z,1.00
2019-05-12T00:43:51.772Z,0.97
2019-05-12T00:46:18.494Z,1.20
2019-05-12T00:48:45.235Z,0.90
2019-05-12T00:51:12.709Z,0.90
2019-05-12T00:53:43.323Z,1.00
2019-05-12T00:56:08.537Z,0.90
2019-05-12T00:58:35.550Z,1.30
2019-05-12T01:01:03.149Z,1.00
2019-05-12T01:03:30.342Z,1.10
2019-05-12T01:05:57.731Z,1.20
2019-05-12T01:08:23.982Z,1.00
2019-05-12T01:10:50.778Z,1.00
2019-05-12T01:13:18.701Z,1.37
2019-05-12T01:15:44.460Z,0.90
2019-05-12T01:18:11.922Z,0.70
2019-05-12T01:20:39.371Z,1.10
2019-05-12T01:23:08.509Z,0.80
2019-05-12T01:25:33.853Z,1.10
2019-05-12T01:28:00.561Z,1.00
2019-05-12T01:30:28.544Z,0.87
2019-05-12T01:32:57.455Z,0.87
2019-05-12T01:35:22.309Z,0.97
2019-05-12T01:40:32.154Z,1.00
2019-05-12T01:42:59.102Z,1.10
2019-05-12T01:45:28.445Z,1.10
2019-05-12T01:47:53.667Z,1.00
2019-05-12T01:50:21.778Z,1.17
2019-05-12T01:52:49.955Z,0.97
2019-05-12T01:55:18.563Z,1.00
2019-05-12T01:57:44.354Z,0.90
2019-05-12T02:00:11.198Z,0.83
2019-05-12T02:02:38.599Z,1.00
2019-05-12T02:05:05.091Z,1.03
2019-05-12T02:07:32.345Z,1.10
2019-05-12T02:09:59.698Z,1.10
2019-05-12T02:12:28.824Z,1.10
2019-05-12T02:14:55.432Z,1.00
2019-05-12T02:17:22.480Z,0.93
2019-05-12T02:19:51.165Z,0.93
2019-05-12T02:22:18.987Z,1.10
2019-05-12T02:24:47.752Z,1.27
2019-05-12T02:27:12.509Z,1.80
2019-05-12T02:29:39.964Z,4.00
2019-05-12T02:32:06.913Z,4.23
2019-05-12T02:34:34.997Z,4.30
2019-05-12T02:37:00.599Z,3.83
2019-05-12T02:39:27.445Z,4.60
2019-05-12T02:41:55.004Z,5.43
2019-05-12T02:44:24.716Z,5.47
2019-05-12T02:46:50.224Z,5.20
2019-05-12T02:49:16.961Z,6.17
2019-05-12T02:51:45.523Z,5.93
2019-05-12T02:54:10.752Z,6.77
2019-05-12T02:56:37.596Z,6.93
2019-05-12T02:59:05.382Z,6.37
2019-05-12T03:01:34.552Z,7.40
2019-05-12T03:03:58.331Z,7.27
2019-05-12T03:06:25.381Z,7.77
2019-05-12T03:08:54.952Z,6.80
2019-05-12T03:11:18.981Z,6.77
2019-05-12T03:13:45.802Z,7.50
2019-05-12T03:16:14.911Z,8.60
2019-05-12T03:18:39.486Z,8.37
2019-05-12T03:21:06.349Z,9.07
2019-05-12T03:23:35.194Z,8.50
2019-05-12T03:26:00.734Z,8.40
2019-05-12T03:28:27.680Z,9.13
2019-05-12T03:30:57.485Z,8.57
2019-05-12T03:33:27.843Z,8.57
2019-05-12T03:35:52.729Z,8.10
2019-05-12T03:38:15.272Z,8.53
2019-05-12T03:40:45.104Z,8.73
2019-05-12T03:43:09.043Z,8.23
2019-05-12T03:45:36.473Z,7.53
2019-05-12T03:48:04.219Z,7.10
2019-05-12T03:50:29.774Z,7.57
2019-05-12T03:52:56.781Z,7.67
2019-05-12T03:55:34.179Z,6.90
2019-05-12T03:57:50.191Z,6.87
2019-05-12T04:00:17.041Z,6.90
2019-05-12T04:02:45.328Z,6.63
2019-05-12T04:05:10.832Z,6.07
2019-05-12T04:07:37.673Z,5.67
2019-05-12T04:10:05.396Z,5.63
2019-05-12T04:12:34.286Z,6.20
2019-05-12T04:14:58.304Z,4.83
2019-05-12T04:17:25.044Z,5.87
2019-05-12T04:19:54.824Z,5.23
2019-05-12T04:22:18.937Z,5.80
2019-05-12T04:24:45.777Z,5.47
2019-05-12T04:27:15.082Z,5.23
2019-05-12T04:29:39.568Z,4.90
2019-05-12T04:32:06.617Z,5.10
2019-05-12T04:34:34.301Z,5.30
2019-05-12T04:37:00.298Z,5.40
2019-05-12T04:39:27.147Z,5.40
2019-05-12T04:41:55.174Z,5.43
2019-05-12T04:44:20.935Z,5.60
2019-05-12T04:46:47.779Z,4.80
2019-05-12T04:49:15.723Z,4.70
2019-05-12T04:51:44.960Z,5.40
2019-05-12T04:54:08.612Z,5.17
2019-05-12T04:56:36.152Z,4.70
2019-05-12T04:59:05.016Z,4.40
2019-05-12T05:01:29.239Z,4.83
2019-05-12T05:03:56.083Z,4.80
2019-05-12T05:06:25.324Z,4.50
2019-05-12T05:08:49.876Z,4.60
2019-05-12T05:11:16.714Z,4.67
2019-05-12T05:13:44.410Z,4.37
2019-05-12T05:16:10.297Z,4.40
2019-05-12T05:18:40.339Z,4.03
2019-05-12T05:21:04.688Z,3.90
2019-05-12T05:23:30.917Z,3.60
2019-05-12T05:25:57.772Z,3.90
2019-05-12T05:28:24.512Z,4.00
2019-05-12T05:30:53.496Z,3.83
2019-05-12T05:33:20.002Z,4.40
2019-05-12T05:35:45.863Z,4.20
2019-05-12T05:38:18.728Z,3.77
2019-05-12T05:40:43.386Z,3.90
2019-05-12T05:43:18.456Z,4.17
2019-05-12T05:45:35.428Z,4.27
2019-05-12T05:48:05.531Z,4.30
2019-05-12T05:50:29.701Z,4.60
2019-05-12T05:52:55.499Z,4.50
2019-05-12T05:55:23.356Z,4.77
2019-05-12T05:57:49.801Z,4.63
2019-05-12T06:00:22.596Z,4.43
2019-05-12T06:02:44.271Z,4.23
2019-05-12T06:05:10.737Z,4.27
2019-05-12T06:07:39.312Z,3.93
2019-05-12T06:10:04.524Z,3.87
2019-05-12T06:12:33.478Z,3.80
2019-05-12T06:14:59.838Z,4.40
2019-05-12T06:17:25.054Z,3.63
2019-05-12T06:19:53.836Z,3.30
2019-05-12T06:22:18.740Z,4.00
2019-05-12T06:24:49.206Z,3.80
2019-05-12T06:27:19.457Z,3.60
2019-05-12T06:29:39.271Z,3.07
2019-05-12T06:32:10.655Z,3.80
2019-05-12T06:34:34.265Z,3.47
2019-05-12T06:37:03.127Z,3.50
2019-05-12T06:39:26.795Z,3.23
2019-05-12T06:41:56.997Z,2.93
2019-05-12T06:44:21.245Z,3.07
2019-05-12T06:46:47.985Z,3.03
2019-05-12T06:49:17.413Z,3.00
2019-05-12T06:51:44.287Z,2.77
2019-05-12T06:54:12.073Z,3.07
2019-05-12T06:56:35.283Z,3.00
2019-05-12T06:59:09.937Z,3.33
2019-05-12T07:01:28.787Z,3.53
2019-05-12T07:04:00.628Z,3.20
2019-05-12T07:06:24.742Z,3.00
2019-05-12T07:09:02.350Z,3.50
2019-05-12T07:11:18.698Z,3.60
2019-05-12T07:13:45.517Z,3.40
2019-05-12T07:16:19.194Z,3.60
2019-05-12T07:18:39.160Z,3.30
2019-05-12T07:21:09.433Z,2.90
2019-05-12T07:23:33.753Z,3.30
2019-05-12T07:26:05.007Z,3.20
2019-05-12T07:28:30.461Z,2.83
2019-05-12T07:30:54.497Z,2.63
2019-05-12T07:33:20.072Z,2.70
2019-05-12T07:35:46.856Z,2.73
2019-05-12T07:38:21.160Z,3.00
2019-05-12T07:40:40.498Z,3.60
2019-05-12T07:43:09.873Z,3.30
2019-05-12T07:45:34.212Z,3.67
2019-05-12T07:48:05.615Z,3.43
2019-05-12T07:50:28.160Z,3.47
2019-05-12T07:52:54.943Z,3.20
2019-05-12T07:55:23.738Z,3.17
2019-05-12T07:57:55.455Z,3.47
2019-05-12T08:00:21.026Z,3.27
2019-05-12T08:02:44.345Z,3.63
2019-05-12T08:05:11.081Z,3.40
2019-05-12T08:07:37.824Z,3.53
2019-05-12T08:10:15.921Z,3.73
2019-05-12T08:12:34.274Z,3.60
2019-05-12T08:15:05.459Z,3.57
2019-05-12T08:17:28.548Z,3.30
2019-05-12T08:19:55.938Z,3.43
2019-05-12T08:22:25.127Z,3.97
2019-05-12T08:24:50.089Z,3.80
2019-05-12T08:27:16.800Z,4.10
2019-05-12T08:29:43.494Z,4.23
2019-05-12T08:32:18.006Z,4.10
2019-05-12T08:34:39.728Z,4.00
2019-05-12T08:37:04.458Z,4.40
2019-05-12T08:39:30.739Z,4.77
2019-05-12T08:41:57.421Z,4.07
2019-05-12T08:44:33.721Z,3.63
2019-05-12T08:46:53.365Z,3.87
2019-05-12T08:49:18.457Z,3.80
2019-05-12T08:51:49.464Z,3.40
2019-05-12T08:54:14.072Z,3.73
2019-05-12T08:56:38.846Z,3.50
2019-05-12T08:59:09.488Z,2.90
2019-05-12T09:01:34.359Z,4.00
2019-05-12T09:04:00.395Z,3.37
2019-05-12T09:06:26.885Z,3.53
2019-05-12T09:08:55.409Z,3.47
2019-05-12T09:11:24.404Z,3.40
2019-05-12T09:13:52.583Z,3.40
2019-05-12T09:16:18.722Z,3.40
2019-05-12T09:18:45.541Z,3.07
2019-05-12T09:21:14.134Z,3.10
2019-05-12T09:23:41.134Z,3.20
2019-05-12T09:26:05.868Z,2.90
2019-05-12T09:28:44.357Z,3.07
2019-05-12T09:30:59.383Z,2.67
2019-05-12T09:33:29.571Z,3.30
2019-05-12T09:35:54.079Z,2.87
2019-05-12T09:38:21.547Z,3.33
2019-05-12T09:40:47.297Z,3.10
2019-05-12T09:43:14.112Z,3.00
2019-05-12T09:45:49.753Z,2.90
2019-05-12T09:48:09.340Z,3.03
2019-05-12T09:50:34.485Z,3.27
2019-05-12T09:53:07.096Z,2.87
2019-05-12T09:55:28.008Z,2.67
2019-05-12T09:57:54.730Z,3.03
2019-05-12T10:00:23.827Z,2.70
2019-05-12T10:02:51.066Z,2.47
2019-05-12T10:05:15.169Z,2.33
2019-05-12T10:07:44.374Z,2.40
2019-05-12T10:10:08.805Z,2.57
2019-05-12T10:12:44.662Z,2.60
2019-05-12T10:15:04.288Z,2.33
2019-05-12T10:17:33.984Z,2.20
2019-05-12T10:19:59.752Z,2.30
2019-05-12T10:22:37.704Z,2.10
2019-05-12T10:25:00.117Z,2.30
2019-05-12T10:27:31.802Z,2.10
2019-05-12T10:29:54.381Z,1.80
2019-05-12T10:32:23.920Z,1.83
2019-05-12T10:34:51.046Z,1.87
2019-05-12T10:37:19.266Z,2.20
2019-05-12T10:39:42.033Z,1.97
2019-05-12T10:42:08.740Z,2.00
2019-05-12T10:44:40.709Z,1.97
2019-05-12T10:47:04.411Z,2.10
2019-05-12T10:49:30.045Z,2.10
2019-05-12T10:51:57.504Z,1.60
2019-05-12T10:54:24.409Z,1.60
2019-05-12T10:56:51.115Z,2.00
2019-05-12T10:59:30.323Z,1.60
2019-05-12T11:01:48.797Z,2.27
2019-05-12T11:04:11.662Z,1.90
2019-05-12T11:06:39.727Z,2.13
2019-05-12T11:09:06.188Z,1.97
2019-05-12T11:11:41.724Z,2.00
2019-05-12T11:14:00.451Z,2.10
2019-05-12T11:16:31.123Z,2.07
2019-05-12T11:18:54.677Z,2.00
2019-05-12T11:21:21.445Z,1.90
2019-05-12T11:23:48.146Z,1.70
2019-05-12T11:26:14.938Z,1.60
2019-05-12T11:28:41.656Z,1.80
2019-05-12T11:31:08.366Z,1.73
2019-05-12T11:33:35.127Z,2.00
2019-05-12T11:36:01.828Z,1.50
2019-05-12T11:38:28.537Z,1.30
2019-05-12T11:40:55.281Z,1.33
2019-05-12T11:43:24.838Z,1.30
2019-05-12T11:45:49.579Z,1.30
2019-05-12T11:48:17.025Z,1.00
2019-05-12T11:50:47.902Z,1.03
2019-05-12T11:53:10.521Z,1.10
2019-05-12T11:55:37.957Z,1.00
2019-05-12T11:58:09.814Z,1.20
2019-05-12T12:00:33.616Z,1.10
2019-05-12T12:03:03.783Z,1.10
2019-05-12T12:05:26.270Z,1.30
2019-05-12T12:07:56.329Z,1.13
2019-05-12T12:10:23.439Z,1.10
2019-05-12T12:12:49.913Z,1.20
2019-05-12T12:15:20.242Z,1.20
2019-05-12T12:17:44.185Z,1.00
2019-05-12T12:20:15.972Z,1.27
2019-05-12T12:22:43.448Z,1.20
2019-05-12T12:25:10.666Z,1.03
2019-05-12T12:27:35.992Z,1.20
2019-05-12T12:30:16.059Z,1.20
2019-05-12T12:32:30.335Z,1.00
2019-05-12T12:35:00.966Z,1.33
2019-05-12T12:37:25.723Z,1.00
2019-05-12T12:39:53.584Z,1.10
2019-05-12T12:42:19.758Z,0.90
2019-05-12T12:44:46.474Z,1.10
2019-05-12T12:47:13.945Z,1.60
2019-05-12T12:49:44.432Z,1.50
2019-05-12T12:52:07.519Z,1.50
2019-05-12T12:54:34.241Z,1.00
2019-05-12T12:57:06.589Z,1.20
2019-05-12T12:59:27.760Z,1.20
2019-05-12T13:01:59.192Z,1.10
2019-05-12T13:04:21.353Z,1.27
2019-05-12T13:06:48.076Z,1.20
2019-05-12T13:09:24.203Z,1.10
2019-05-12T13:11:41.675Z,1.23
2019-05-12T13:14:09.194Z,1.27
2019-05-12T13:16:36.031Z,1.30
2019-05-12T13:19:06.105Z,1.10
2019-05-12T13:21:29.556Z,1.40
2019-05-12T13:23:57.050Z,2.57
2019-05-12T13:26:24.026Z,2.60
2019-05-12T13:28:53.342Z,4.90
2019-05-12T13:31:17.595Z,3.63
2019-05-12T13:33:49.314Z,1.50
2019-05-12T13:36:13.552Z,1.40
2019-05-12T13:38:40.507Z,1.10
2019-05-12T13:41:09.671Z,0.90
2019-05-12T13:43:34.036Z,16.53
2019-05-12T13:45:59.045Z,0.73
2019-05-12T13:48:25.734Z,1.90
2019-05-12T13:50:54.352Z,0.70
2019-05-12T13:53:19.275Z,0.50
2019-05-12T13:55:49.490Z,3.33
2019-05-12T13:58:13.673Z,0.60
2019-05-12T14:00:41.379Z,0.73
2019-05-12T14:03:09.599Z,0.60
2019-05-12T14:05:33.901Z,1.83
2019-05-12T14:08:01.062Z,1.50
2019-05-12T14:10:27.910Z,0.80
2019-05-12T14:12:55.437Z,0.80
2019-05-12T14:15:24.631Z,2.17
2019-05-12T14:17:49.055Z,0.90
2019-05-12T14:20:20.006Z,0.50
2019-05-12T14:22:44.724Z,0.60
2019-05-12T14:25:10.183Z,0.80
2019-05-12T14:27:36.879Z,0.70
2019-05-12T14:30:10.006Z,0.70
2019-05-12T14:32:33.507Z,0.80
2019-05-12T14:35:00.687Z,0.70
2019-05-12T14:37:25.832Z,0.60
2019-05-12T14:39:53.674Z,7.47
2019-05-12T14:42:19.362Z,0.70
2019-05-12T14:44:49.650Z,0.77
2019-05-12T14:47:12.880Z,0.77
2019-05-12T14:49:39.624Z,0.90
2019-05-12T14:52:06.415Z,0.87
2019-05-12T14:54:34.306Z,0.90
2019-05-12T14:57:00.015Z,1.27
2019-05-12T14:59:30.179Z,1.13
2019-05-12T15:01:59.217Z,0.90
2019-05-12T15:04:27.820Z,1.90
2019-05-12T15:06:48.805Z,1.87
2019-05-12T15:09:19.687Z,2.13
2019-05-12T15:11:43.685Z,2.67
2019-05-12T15:14:09.183Z,2.63
2019-05-12T15:16:40.265Z,2.50
2019-05-12T15:19:03.403Z,2.97
2019-05-12T15:21:31.274Z,3.00
2019-05-12T15:23:56.320Z,2.97
2019-05-12T15:26:24.342Z,3.50
2019-05-12T15:28:50.671Z,3.83
2019-05-12T15:31:17.430Z,4.33
2019-05-12T15:33:44.152Z,3.60
2019-05-12T15:36:10.893Z,4.17
2019-05-12T15:38:37.601Z,3.53
2019-05-12T15:41:04.399Z,3.63
2019-05-12T15:43:35.790Z,2.30
2019-05-12T15:45:59.715Z,2.27
2019-05-12T15:48:26.155Z,2.20
2019-05-12T15:50:54.002Z,2.13
2019-05-12T15:53:22.198Z,2.13
2019-05-12T15:55:46.377Z,2.00
2019-05-12T15:58:14.170Z,2.50
2019-05-12T16:00:39.999Z,2.20
2019-05-12T16:03:06.721Z,2.00
2019-05-12T16:05:34.237Z,1.93
2019-05-12T16:08:03.575Z,2.00
2019-05-12T16:10:28.869Z,2.50
2019-05-12T16:12:55.660Z,2.00
2019-05-12T16:15:22.574Z,2.10
2019-05-12T16:17:49.417Z,2.40
2019-05-12T16:20:16.174Z,1.90
2019-05-12T16:22:45.221Z,1.90
2019-05-12T16:25:10.601Z,5.93
2019-05-12T16:27:37.441Z,2.20
2019-05-12T16:30:05.071Z,1.57
2019-05-12T16:32:42.143Z,1.90
2019-05-12T16:34:59.353Z,1.80
2019-05-12T16:37:31.058Z,2.00
2019-05-12T16:39:54.075Z,10.70
2019-05-12T16:42:19.725Z,2.10
2019-05-12T16:44:46.444Z,2.10
2019-05-12T16:47:18.765Z,2.20
2019-05-12T16:49:40.763Z,3.50
2019-05-12T16:52:08.452Z,2.17
2019-05-12T16:54:35.213Z,1.90
2019-05-12T16:57:08.464Z,2.20
2019-05-12T16:59:29.495Z,2.00
2019-05-12T17:01:59.304Z,1.83
2019-05-12T17:04:23.885Z,1.40
2019-05-12T17:06:49.976Z,1.70
2019-05-12T17:09:16.933Z,1.83
2019-05-12T17:11:50.108Z,1.67
2019-05-12T17:14:10.549Z,1.43
2019-05-12T17:16:41.860Z,2.50
2019-05-12T17:19:10.008Z,4.40
2019-05-12T17:21:33.544Z,4.27
2019-05-12T17:23:59.252Z,3.47
2019-05-12T17:26:25.958Z,2.87
2019-05-12T17:28:54.754Z,1.90
2019-05-12T17:31:22.608Z,2.00
2019-05-12T17:33:49.317Z,2.37
2019-05-12T17:36:17.975Z,3.47
2019-05-12T17:38:44.039Z,2.00
2019-05-12T17:41:09.781Z,1.60
2019-05-12T17:43:40.002Z,1.40
2019-05-12T17:46:04.792Z,2.03
2019-05-12T17:48:37.046Z,1.90
2019-05-12T17:51:00.339Z,1.90
2019-05-12T17:53:30.627Z,1.87
2019-05-12T17:55:56.357Z,1.60
2019-05-12T17:58:24.224Z,1.70
2019-05-12T18:00:51.920Z,1.80
2019-05-12T18:03:22.069Z,1.30
2019-05-12T18:05:48.036Z,1.53
2019-05-12T18:08:14.440Z,1.40
2019-05-12T18:10:43.487Z,1.50
2019-05-12T18:13:08.225Z,1.30
2019-05-12T18:15:37.829Z,1.30
2019-05-12T18:18:04.085Z,1.30
2019-05-12T18:20:31.243Z,1.53
2019-05-12T18:22:57.780Z,1.20
2019-05-12T18:25:30.335Z,1.10
2019-05-12T18:27:58.148Z,0.90
2019-05-12T18:30:26.118Z,1.00
2019-05-12T18:33:04.039Z,1.20
2019-05-12T18:35:20.995Z,1.30
2019-05-12T18:37:47.761Z,1.00
2019-05-12T18:40:14.954Z,0.97
2019-05-12T18:42:42.333Z,0.90
2019-05-12T18:45:17.730Z,1.03
2019-05-12T18:47:39.695Z,1.37
2019-05-12T18:50:06.497Z,0.80
2019-05-12T18:52:37.708Z,1.00
2019-05-12T18:55:00.374Z,0.67
2019-05-12T18:57:27.587Z,0.80
2019-05-12T18:59:59.762Z,0.80
2019-05-12T19:02:23.544Z,0.77
2019-05-12T19:04:48.900Z,0.90
2019-05-12T19:07:15.632Z,0.90
2019-05-12T19:09:46.950Z,0.90
2019-05-12T19:12:16.131Z,0.90
2019-05-12T19:14:40.336Z,0.90
2019-05-12T19:17:04.073Z,0.80
2019-05-12T19:19:30.885Z,0.87
2019-05-12T19:22:04.751Z,0.87
2019-05-12T19:24:25.986Z,0.70
2019-05-12T19:26:54.116Z,0.87
2019-05-12T19:29:19.780Z,0.90
2019-05-12T19:31:52.297Z,0.53
2019-05-12T19:34:20.072Z,0.80
2019-05-12T19:36:45.027Z,0.70
2019-05-12T19:39:07.922Z,0.80
2019-05-12T19:41:36.507Z,0.90
2019-05-12T19:44:03.930Z,0.67
2019-05-12T19:46:28.476Z,0.90
2019-05-12T19:48:55.387Z,0.80
2019-05-12T19:51:27.246Z,0.70
2019-05-12T19:53:49.605Z,0.97
2019-05-12T19:56:18.908Z,0.80
2019-05-12T19:58:45.893Z,0.70
2019-05-12T20:01:13.909Z,0.80
2019-05-12T20:03:38.578Z,0.87
2019-05-12T20:06:05.371Z,0.90
2019-05-12T20:08:32.134Z,0.70
2019-05-12T20:10:58.929Z,0.70
2019-05-12T20:13:29.700Z,1.10
2019-05-12T20:15:52.514Z,0.80
2019-05-12T20:18:19.265Z,0.73
2019-05-12T20:20:46.271Z,0.90
2019-05-12T20:23:14.121Z,0.90
2019-05-12T20:25:40.499Z,1.00
2019-05-12T20:28:11.224Z,1.00
2019-05-12T20:30:35.111Z,0.90
2019-05-12T20:33:04.176Z,0.90
2019-05-12T20:35:29.948Z,1.13
2019-05-12T20:37:57.566Z,0.90
2019-05-12T20:40:24.037Z,1.00
2019-05-12T20:43:07.482Z,0.97
2019-05-12T20:45:17.766Z,0.70
2019-05-12T20:47:47.503Z,1.27
2019-05-12T20:50:14.444Z,1.00
2019-05-12T20:52:45.056Z,1.00
2019-05-12T20:55:07.848Z,0.90
2019-05-12T20:57:40.082Z,1.20
2019-05-12T21:00:08.204Z,1.20
2019-05-12T21:02:30.619Z,1.40
2019-05-12T21:05:00.865Z,1.30
2019-05-12T21:07:27.010Z,1.40
2019-05-12T21:09:51.680Z,1.40
2019-05-12T21:12:18.654Z,1.40
2019-05-12T21:14:51.353Z,1.40
2019-05-12T21:17:15.951Z,1.37
2019-05-12T21:19:41.509Z,1.40
2019-05-12T21:22:07.317Z,1.23
2019-05-12T21:24:36.038Z,1.30
2019-05-12T21:27:03.688Z,1.27
2019-05-12T21:29:29.993Z,0.80
2019-05-12T21:31:56.226Z,1.10
2019-05-12T21:34:23.335Z,1.23
2019-05-12T21:36:49.279Z,1.10
2019-05-12T21:39:16.708Z,1.00
2019-05-12T21:41:47.430Z,1.00
2019-05-12T21:44:11.495Z,1.13
2019-05-12T21:46:38.383Z,1.10
2019-05-12T21:49:11.972Z,1.00
2019-05-12T21:51:34.035Z,1.10
2019-05-12T21:53:59.208Z,0.77
2019-05-12T21:56:25.944Z,1.03
2019-05-12T21:58:56.466Z,1.23
2019-05-12T22:01:19.621Z,1.10
2019-05-12T22:03:57.814Z,1.20
2019-05-12T22:06:21.173Z,0.87
2019-05-12T22:08:40.337Z,1.00
2019-05-12T22:11:11.355Z,1.17
2019-05-12T22:13:34.930Z,1.20
2019-05-12T22:16:03.669Z,0.90
2019-05-12T22:18:28.700Z,1.20
2019-05-12T22:21:01.307Z,0.90
2019-05-12T22:23:24.729Z,1.00
2019-05-12T22:25:55.636Z,1.40
2019-05-12T22:28:17.398Z,1.10
2019-05-12T22:30:44.327Z,0.90
2019-05-12T22:33:13.770Z,1.07
2019-05-12T22:35:40.520Z,1.20
2019-05-12T22:38:15.243Z,1.23
2019-05-12T22:40:34.302Z,1.20
2019-05-12T22:43:03.811Z,0.97
2019-05-12T22:45:28.083Z,1.10
2019-05-12T22:47:58.985Z,1.10
2019-05-12T22:50:27.243Z,1.03
2019-05-12T22:52:49.615Z,1.20
2019-05-12T22:55:21.313Z,1.10
2019-05-12T22:57:43.586Z,1.00
2019-05-12T23:00:13.448Z,0.90
2019-05-12T23:02:37.874Z,1.00
2019-05-12T23:05:04.799Z,1.00
2019-05-12T23:07:33.126Z,1.10
2019-05-12T23:10:00.684Z,0.83
2019-05-12T23:12:30.334Z,1.10
2019-05-12T23:15:02.989Z,1.20
2019-05-12T23:17:25.173Z,1.17
2019-05-12T23:19:55.537Z,1.50
2019-05-12T23:22:19.620Z,1.10
2019-05-12T23:24:46.911Z,1.47
2019-05-12T23:27:18.878Z,1.40
2019-05-12T23:29:44.242Z,1.33
2019-05-12T23:32:12.000Z,1.50
2019-05-12T23:34:37.135Z,1.80
2019-05-12T23:37:04.072Z,1.70
2019-05-12T23:39:32.285Z,2.10
2019-05-12T23:41:57.837Z,2.30
2019-05-12T23:44:24.687Z,1.90
2019-05-12T23:46:53.693Z,2.10
2019-05-12T23:49:18.509Z,1.63
2019-05-12T23:51:45.235Z,1.97
2019-05-12T23:54:14.217Z,1.47
2019-05-12T23:56:38.751Z,1.30
2019-05-12T23:59:05.554Z,1.30
